sensor_id;sensor_type;location;lat;lon;timestamp;P1;durP1;ratioP1;P2;durP2;ratioP2
9128;SDS011;4599;50.906;6.786;2023-03-01T00:03:23;9.67;;;5.90;;
9128;SDS011;4599;50.906;6.786;2023-03-01T00:07:26;8.20;;;5.50;;
9128;SDS011;4599;50.906;6.786;2023-03-01T00:11:28;8.47;;;5.00;;
9128;SDS011;4599;50.906;6.786;2023-03-01T00:15:31;11.07;;;5.47;;
9128;SDS011;4599;50.906;6.786;2023-03-01T00:19:33;8.57;;;5.30;;
9128;SDS011;4599;50.906;6.786;2023-03-01T00:23:36;7.33;;;5.17;;
9128;SDS011;4599;50.906;6.786;2023-03-01T00:27:38;5.83;;;4.73;;
9128;SDS011;4599;50.906;6.786;2023-03-01T00:31:39;7.83;;;4.70;;
9128;SDS011;4599;50.906;6.786;2023-03-01T00:35:41;9.50;;;6.00;;
9128;SDS011;4599;50.906;6.786;2023-03-01T00:39:43;9.10;;;5.03;;
9128;SDS011;4599;50.906;6.786;2023-03-01T00:43:45;7.80;;;5.17;;
9128;SDS011;4599;50.906;6.786;2023-03-01T00:47:49;6.93;;;4.90;;
9128;SDS011;4599;50.906;6.786;2023-03-01T00:51:53;7.67;;;5.47;;
9128;SDS011;4599;50.906;6.786;2023-03-01T00:55:58;8.23;;;5.50;;
9128;SDS011;4599;50.906;6.786;2023-03-01T00:59:59;7.37;;;4.87;;
9128;SDS011;4599;50.906;6.786;2023-03-01T01:04:02;8.77;;;5.30;;
9128;SDS011;4599;50.906;6.786;2023-03-01T01:08:05;8.03;;;5.83;;
9128;SDS011;4599;50.906;6.786;2023-03-01T01:12:10;8.80;;;5.37;;
9128;SDS011;4599;50.906;6.786;2023-03-01T01:16:11;10.77;;;5.70;;
9128;SDS011;4599;50.906;6.786;2023-03-01T01:20:13;11.07;;;5.67;;
9128;SDS011;4599;50.906;6.786;2023-03-01T01:24:15;8.77;;;5.47;;
9128;SDS011;4599;50.906;6.786;2023-03-01T01:28:19;10.20;;;5.40;;
9128;SDS011;4599;50.906;6.786;2023-03-01T01:32:20;12.37;;;5.80;;
9128;SDS011;4599;50.906;6.786;2023-03-01T01:36:22;8.67;;;5.83;;
9128;SDS011;4599;50.906;6.786;2023-03-01T01:40:23;9.07;;;5.70;;
9128;SDS011;4599;50.906;6.786;2023-03-01T01:44:27;8.40;;;5.60;;
9128;SDS011;4599;50.906;6.786;2023-03-01T01:48:32;7.07;;;5.23;;
9128;SDS011;4599;50.906;6.786;2023-03-01T01:52:39;9.97;;;5.60;;
9128;SDS011;4599;50.906;6.786;2023-03-01T01:56:40;9.40;;;5.60;;
9128;SDS011;4599;50.906;6.786;2023-03-01T02:00:47;9.30;;;5.90;;
9128;SDS011;4599;50.906;6.786;2023-03-01T02:04:49;8.77;;;5.80;;
9128;SDS011;4599;50.906;6.786;2023-03-01T02:08:55;6.27;;;4.97;;
9128;SDS011;4599;50.906;6.786;2023-03-01T02:13:00;11.60;;;5.40;;
9128;SDS011;4599;50.906;6.786;2023-03-01T02:17:03;6.70;;;5.37;;
9128;SDS011;4599;50.906;6.786;2023-03-01T02:21:08;7.80;;;5.10;;
9128;SDS011;4599;50.906;6.786;2023-03-01T02:25:27;8.17;;;5.30;;
9128;SDS011;4599;50.906;6.786;2023-03-01T02:29:36;7.80;;;5.27;;
9128;SDS011;4599;50.906;6.786;2023-03-01T02:33:38;7.87;;;5.30;;
9128;SDS011;4599;50.906;6.786;2023-03-01T02:37:40;5.90;;;4.97;;
9128;SDS011;4599;50.906;6.786;2023-03-01T02:41:44;8.00;;;4.63;;
9128;SDS011;4599;50.906;6.786;2023-03-01T02:45:49;7.07;;;5.30;;
9128;SDS011;4599;50.906;6.786;2023-03-01T02:49:52;9.30;;;5.80;;
9128;SDS011;4599;50.906;6.786;2023-03-01T02:53:56;9.60;;;5.67;;
9128;SDS011;4599;50.906;6.786;2023-03-01T02:58:07;6.37;;;5.23;;
9128;SDS011;4599;50.906;6.786;2023-03-01T03:02:19;9.13;;;5.80;;
9128;SDS011;4599;50.906;6.786;2023-03-01T03:06:22;7.20;;;5.33;;
9128;SDS011;4599;50.906;6.786;2023-03-01T03:10:25;7.43;;;5.63;;
9128;SDS011;4599;50.906;6.786;2023-03-01T03:14:27;10.13;;;5.57;;
9128;SDS011;4599;50.906;6.786;2023-03-01T03:18:30;8.03;;;5.40;;
9128;SDS011;4599;50.906;6.786;2023-03-01T03:22:32;8.50;;;5.83;;
9128;SDS011;4599;50.906;6.786;2023-03-01T03:26:33;9.70;;;5.50;;
9128;SDS011;4599;50.906;6.786;2023-03-01T03:30:35;7.53;;;5.40;;
9128;SDS011;4599;50.906;6.786;2023-03-01T03:34:39;9.47;;;5.43;;
9128;SDS011;4599;50.906;6.786;2023-03-01T03:38:40;9.43;;;5.47;;
9128;SDS011;4599;50.906;6.786;2023-03-01T03:42:42;9.03;;;5.37;;
9128;SDS011;4599;50.906;6.786;2023-03-01T03:46:43;7.80;;;5.53;;
9128;SDS011;4599;50.906;6.786;2023-03-01T03:50:51;8.47;;;5.53;;
9128;SDS011;4599;50.906;6.786;2023-03-01T03:54:53;9.10;;;5.77;;
9128;SDS011;4599;50.906;6.786;2023-03-01T03:58:55;8.33;;;5.37;;
9128;SDS011;4599;50.906;6.786;2023-03-01T04:02:56;13.63;;;5.90;;
9128;SDS011;4599;50.906;6.786;2023-03-01T04:06:59;10.00;;;6.17;;
9128;SDS011;4599;50.906;6.786;2023-03-01T04:11:02;9.73;;;5.53;;
9128;SDS011;4599;50.906;6.786;2023-03-01T04:15:06;6.73;;;5.23;;
9128;SDS011;4599;50.906;6.786;2023-03-01T04:19:08;10.67;;;6.10;;
9128;SDS011;4599;50.906;6.786;2023-03-01T04:23:12;9.20;;;5.77;;
9128;SDS011;4599;50.906;6.786;2023-03-01T04:27:14;9.07;;;5.73;;
9128;SDS011;4599;50.906;6.786;2023-03-01T04:31:17;9.13;;;5.80;;
9128;SDS011;4599;50.906;6.786;2023-03-01T04:35:20;8.67;;;6.07;;
9128;SDS011;4599;50.906;6.786;2023-03-01T04:39:22;9.47;;;6.27;;
9128;SDS011;4599;50.906;6.786;2023-03-01T04:43:24;9.07;;;6.50;;
9128;SDS011;4599;50.906;6.786;2023-03-01T04:47:25;8.67;;;6.03;;
9128;SDS011;4599;50.906;6.786;2023-03-01T04:51:27;8.80;;;6.20;;
9128;SDS011;4599;50.906;6.786;2023-03-01T04:55:30;7.53;;;5.73;;
9128;SDS011;4599;50.906;6.786;2023-03-01T04:59:32;9.67;;;6.20;;
9128;SDS011;4599;50.906;6.786;2023-03-01T05:03:33;12.43;;;6.60;;
9128;SDS011;4599;50.906;6.786;2023-03-01T05:07:34;11.77;;;6.67;;
9128;SDS011;4599;50.906;6.786;2023-03-01T05:11:37;9.80;;;6.83;;
9128;SDS011;4599;50.906;6.786;2023-03-01T05:15:39;9.47;;;6.30;;
9128;SDS011;4599;50.906;6.786;2023-03-01T05:19:40;10.23;;;6.63;;
9128;SDS011;4599;50.906;6.786;2023-03-01T05:23:42;10.67;;;6.43;;
9128;SDS011;4599;50.906;6.786;2023-03-01T05:27:45;12.40;;;6.43;;
9128;SDS011;4599;50.906;6.786;2023-03-01T05:31:46;13.37;;;6.60;;
9128;SDS011;4599;50.906;6.786;2023-03-01T05:35:48;8.33;;;6.07;;
9128;SDS011;4599;50.906;6.786;2023-03-01T05:39:50;8.17;;;6.00;;
9128;SDS011;4599;50.906;6.786;2023-03-01T05:43:53;11.40;;;6.80;;
9128;SDS011;4599;50.906;6.786;2023-03-01T05:47:54;9.77;;;6.77;;
9128;SDS011;4599;50.906;6.786;2023-03-01T05:51:56;12.03;;;7.27;;
9128;SDS011;4599;50.906;6.786;2023-03-01T05:55:57;12.97;;;9.07;;
9128;SDS011;4599;50.906;6.786;2023-03-01T06:00:00;13.17;;;8.37;;
9128;SDS011;4599;50.906;6.786;2023-03-01T06:04:02;13.87;;;7.03;;
9128;SDS011;4599;50.906;6.786;2023-03-01T06:08:04;11.50;;;7.27;;
9128;SDS011;4599;50.906;6.786;2023-03-01T06:12:06;10.17;;;7.00;;
9128;SDS011;4599;50.906;6.786;2023-03-01T06:16:09;14.43;;;7.40;;
9128;SDS011;4599;50.906;6.786;2023-03-01T06:20:13;11.77;;;6.63;;
9128;SDS011;4599;50.906;6.786;2023-03-01T06:24:15;11.27;;;7.20;;
9128;SDS011;4599;50.906;6.786;2023-03-01T06:28:17;12.53;;;7.03;;
9128;SDS011;4599;50.906;6.786;2023-03-01T06:32:20;14.37;;;6.27;;
9128;SDS011;4599;50.906;6.786;2023-03-01T06:36:21;12.50;;;7.60;;
9128;SDS011;4599;50.906;6.786;2023-03-01T06:40:23;9.60;;;7.17;;
9128;SDS011;4599;50.906;6.786;2023-03-01T06:44:24;12.67;;;7.20;;
9128;SDS011;4599;50.906;6.786;2023-03-01T06:48:28;10.37;;;7.07;;
9128;SDS011;4599;50.906;6.786;2023-03-01T06:52:29;11.17;;;7.00;;
9128;SDS011;4599;50.906;6.786;2023-03-01T06:56:31;12.70;;;7.40;;
9128;SDS011;4599;50.906;6.786;2023-03-01T07:00:33;11.03;;;7.57;;
9128;SDS011;4599;50.906;6.786;2023-03-01T07:04:36;10.10;;;6.63;;
9128;SDS011;4599;50.906;6.786;2023-03-01T07:08:38;9.43;;;7.17;;
9128;SDS011;4599;50.906;6.786;2023-03-01T07:13:07;10.77;;;7.03;;
9128;SDS011;4599;50.906;6.786;2023-03-01T07:17:09;13.97;;;8.00;;
9128;SDS011;4599;50.906;6.786;2023-03-01T07:21:12;15.00;;;7.97;;
9128;SDS011;4599;50.906;6.786;2023-03-01T07:25:15;14.17;;;7.90;;
9128;SDS011;4599;50.906;6.786;2023-03-01T07:29:16;9.10;;;6.80;;
9128;SDS011;4599;50.906;6.786;2023-03-01T07:33:18;13.43;;;7.40;;
9128;SDS011;4599;50.906;6.786;2023-03-01T07:37:21;11.73;;;7.57;;
9128;SDS011;4599;50.906;6.786;2023-03-01T07:41:23;9.90;;;7.93;;
9128;SDS011;4599;50.906;6.786;2023-03-01T07:45:25;10.00;;;6.93;;
9128;SDS011;4599;50.906;6.786;2023-03-01T07:49:27;12.70;;;7.73;;
9128;SDS011;4599;50.906;6.786;2023-03-01T07:53:29;9.57;;;6.93;;
9128;SDS011;4599;50.906;6.786;2023-03-01T07:57:31;9.80;;;6.77;;
9128;SDS011;4599;50.906;6.786;2023-03-01T08:01:32;12.90;;;6.80;;
9128;SDS011;4599;50.906;6.786;2023-03-01T08:05:34;8.07;;;6.37;;
9128;SDS011;4599;50.906;6.786;2023-03-01T08:09:37;7.60;;;6.27;;
9128;SDS011;4599;50.906;6.786;2023-03-01T08:13:38;9.40;;;6.80;;
9128;SDS011;4599;50.906;6.786;2023-03-01T08:17:40;8.70;;;7.03;;
9128;SDS011;4599;50.906;6.786;2023-03-01T08:21:41;11.17;;;7.60;;
9128;SDS011;4599;50.906;6.786;2023-03-01T08:25:44;13.30;;;7.77;;
9128;SDS011;4599;50.906;6.786;2023-03-01T08:29:46;10.27;;;7.50;;
9128;SDS011;4599;50.906;6.786;2023-03-01T08:33:47;11.10;;;7.63;;
9128;SDS011;4599;50.906;6.786;2023-03-01T08:37:50;9.90;;;7.77;;
9128;SDS011;4599;50.906;6.786;2023-03-01T08:41:53;10.47;;;7.97;;
9128;SDS011;4599;50.906;6.786;2023-03-01T08:45:54;11.23;;;8.03;;
9128;SDS011;4599;50.906;6.786;2023-03-01T08:49:56;12.33;;;8.07;;
9128;SDS011;4599;50.906;6.786;2023-03-01T08:53:57;12.67;;;8.43;;
9128;SDS011;4599;50.906;6.786;2023-03-01T08:58:00;13.80;;;8.80;;
9128;SDS011;4599;50.906;6.786;2023-03-01T09:02:02;13.43;;;9.20;;
9128;SDS011;4599;50.906;6.786;2023-03-01T09:06:04;13.07;;;7.80;;
9128;SDS011;4599;50.906;6.786;2023-03-01T09:10:07;13.53;;;8.93;;
9128;SDS011;4599;50.906;6.786;2023-03-01T09:14:10;11.93;;;8.30;;
9128;SDS011;4599;50.906;6.786;2023-03-01T09:18:12;13.50;;;8.23;;
9128;SDS011;4599;50.906;6.786;2023-03-01T09:22:14;14.33;;;10.23;;
9128;SDS011;4599;50.906;6.786;2023-03-01T09:26:16;12.87;;;8.47;;
9128;SDS011;4599;50.906;6.786;2023-03-01T09:30:22;12.80;;;8.10;;
9128;SDS011;4599;50.906;6.786;2023-03-01T09:34:23;11.00;;;8.37;;
9128;SDS011;4599;50.906;6.786;2023-03-01T09:38:25;11.33;;;7.53;;
9128;SDS011;4599;50.906;6.786;2023-03-01T09:42:27;10.17;;;7.17;;
9128;SDS011;4599;50.906;6.786;2023-03-01T09:46:32;13.27;;;7.87;;
9128;SDS011;4599;50.906;6.786;2023-03-01T09:50:39;12.50;;;7.70;;
9128;SDS011;4599;50.906;6.786;2023-03-01T09:54:46;11.50;;;7.50;;
9128;SDS011;4599;50.906;6.786;2023-03-01T09:58:51;8.70;;;6.57;;
9128;SDS011;4599;50.906;6.786;2023-03-01T10:03:01;12.47;;;7.60;;
9128;SDS011;4599;50.906;6.786;2023-03-01T10:07:15;10.90;;;7.33;;
9128;SDS011;4599;50.906;6.786;2023-03-01T10:11:27;8.60;;;6.40;;
9128;SDS011;4599;50.906;6.786;2023-03-01T10:15:33;9.00;;;6.73;;
9128;SDS011;4599;50.906;6.786;2023-03-01T10:19:41;12.87;;;6.87;;
9128;SDS011;4599;50.906;6.786;2023-03-01T10:23:44;12.70;;;6.80;;
9128;SDS011;4599;50.906;6.786;2023-03-01T10:27:49;11.27;;;6.87;;
9128;SDS011;4599;50.906;6.786;2023-03-01T10:31:53;9.20;;;6.57;;
9128;SDS011;4599;50.906;6.786;2023-03-01T10:35:56;9.90;;;6.73;;
9128;SDS011;4599;50.906;6.786;2023-03-01T10:39:58;12.03;;;6.80;;
9128;SDS011;4599;50.906;6.786;2023-03-01T10:44:03;9.33;;;7.10;;
9128;SDS011;4599;50.906;6.786;2023-03-01T10:48:06;10.43;;;7.20;;
9128;SDS011;4599;50.906;6.786;2023-03-01T10:52:18;11.00;;;6.40;;
9128;SDS011;4599;50.906;6.786;2023-03-01T10:56:21;9.43;;;7.20;;
9128;SDS011;4599;50.906;6.786;2023-03-01T11:00:23;9.17;;;7.03;;
9128;SDS011;4599;50.906;6.786;2023-03-01T11:04:26;10.53;;;7.00;;
9128;SDS011;4599;50.906;6.786;2023-03-01T11:08:39;8.30;;;6.40;;
9128;SDS011;4599;50.906;6.786;2023-03-01T11:12:43;11.33;;;7.50;;
9128;SDS011;4599;50.906;6.786;2023-03-01T11:16:45;8.30;;;6.67;;
9128;SDS011;4599;50.906;6.786;2023-03-01T11:20:48;9.87;;;6.83;;
9128;SDS011;4599;50.906;6.786;2023-03-01T11:24:54;11.47;;;7.50;;
9128;SDS011;4599;50.906;6.786;2023-03-01T11:29:12;8.77;;;7.17;;
9128;SDS011;4599;50.906;6.786;2023-03-01T11:33:24;11.17;;;7.53;;
9128;SDS011;4599;50.906;6.786;2023-03-01T11:37:38;10.43;;;7.27;;
9128;SDS011;4599;50.906;6.786;2023-03-01T11:41:44;9.67;;;7.40;;
9128;SDS011;4599;50.906;6.786;2023-03-01T11:50:30;8.97;;;7.20;;
9128;SDS011;4599;50.906;6.786;2023-03-01T11:54:43;8.83;;;6.67;;
9128;SDS011;4599;50.906;6.786;2023-03-01T11:59:06;8.90;;;6.43;;
9128;SDS011;4599;50.906;6.786;2023-03-01T12:03:36;7.77;;;6.37;;
9128;SDS011;4599;50.906;6.786;2023-03-01T12:07:53;9.70;;;6.83;;
9128;SDS011;4599;50.906;6.786;2023-03-01T12:12:08;9.03;;;7.00;;
9128;SDS011;4599;50.906;6.786;2023-03-01T12:16:27;10.07;;;6.63;;
9128;SDS011;4599;50.906;6.786;2023-03-01T12:20:42;8.77;;;6.23;;
9128;SDS011;4599;50.906;6.786;2023-03-01T12:29:29;7.60;;;6.23;;
9128;SDS011;4599;50.906;6.786;2023-03-01T12:33:42;7.30;;;5.90;;
9128;SDS011;4599;50.906;6.786;2023-03-01T12:37:54;7.47;;;5.90;;
9128;SDS011;4599;50.906;6.786;2023-03-01T12:42:01;7.87;;;6.20;;
9128;SDS011;4599;50.906;6.786;2023-03-01T12:46:19;7.93;;;6.53;;
9128;SDS011;4599;50.906;6.786;2023-03-01T12:50:38;11.23;;;6.90;;
9128;SDS011;4599;50.906;6.786;2023-03-01T12:54:42;10.77;;;6.77;;
9128;SDS011;4599;50.906;6.786;2023-03-01T12:58:46;8.57;;;6.63;;
9128;SDS011;4599;50.906;6.786;2023-03-01T13:03:00;9.17;;;6.50;;
9128;SDS011;4599;50.906;6.786;2023-03-01T13:07:15;11.43;;;6.97;;
9128;SDS011;4599;50.906;6.786;2023-03-01T13:11:24;9.73;;;6.47;;
9128;SDS011;4599;50.906;6.786;2023-03-01T13:15:26;8.00;;;5.93;;
9128;SDS011;4599;50.906;6.786;2023-03-01T13:19:30;6.87;;;6.07;;
9128;SDS011;4599;50.906;6.786;2023-03-01T13:23:37;8.00;;;6.50;;
9128;SDS011;4599;50.906;6.786;2023-03-01T13:27:40;8.30;;;6.53;;
9128;SDS011;4599;50.906;6.786;2023-03-01T13:36:01;8.20;;;6.60;;
9128;SDS011;4599;50.906;6.786;2023-03-01T13:40:56;7.30;;;6.27;;
9128;SDS011;4599;50.906;6.786;2023-03-01T13:44:46;11.37;;;6.37;;
9128;SDS011;4599;50.906;6.786;2023-03-01T13:48:49;9.90;;;6.00;;
9128;SDS011;4599;50.906;6.786;2023-03-01T13:52:53;7.43;;;6.07;;
9128;SDS011;4599;50.906;6.786;2023-03-01T13:56:59;9.93;;;6.70;;
9128;SDS011;4599;50.906;6.786;2023-03-01T14:01:03;8.70;;;7.43;;
9128;SDS011;4599;50.906;6.786;2023-03-01T14:05:08;9.27;;;7.33;;
9128;SDS011;4599;50.906;6.786;2023-03-01T14:09:14;8.60;;;7.17;;
9128;SDS011;4599;50.906;6.786;2023-03-01T14:13:23;11.00;;;7.40;;
9128;SDS011;4599;50.906;6.786;2023-03-01T14:22:00;11.77;;;7.13;;
9128;SDS011;4599;50.906;6.786;2023-03-01T14:26:11;10.23;;;6.53;;
9128;SDS011;4599;50.906;6.786;2023-03-01T14:30:19;9.83;;;6.23;;
9128;SDS011;4599;50.906;6.786;2023-03-01T14:34:24;8.93;;;5.53;;
9128;SDS011;4599;50.906;6.786;2023-03-01T14:38:30;7.77;;;5.77;;
9128;SDS011;4599;50.906;6.786;2023-03-01T14:42:35;7.63;;;5.67;;
9128;SDS011;4599;50.906;6.786;2023-03-01T14:46:39;10.27;;;6.00;;
9128;SDS011;4599;50.906;6.786;2023-03-01T14:50:43;10.07;;;5.60;;
9128;SDS011;4599;50.906;6.786;2023-03-01T14:54:46;11.27;;;5.80;;
9128;SDS011;4599;50.906;6.786;2023-03-01T14:58:53;9.40;;;5.73;;
9128;SDS011;4599;50.906;6.786;2023-03-01T15:03:04;7.67;;;5.93;;
9128;SDS011;4599;50.906;6.786;2023-03-01T15:07:09;8.63;;;5.90;;
9128;SDS011;4599;50.906;6.786;2023-03-01T15:11:18;7.47;;;5.60;;
9128;SDS011;4599;50.906;6.786;2023-03-01T15:15:35;8.47;;;5.73;;
9128;SDS011;4599;50.906;6.786;2023-03-01T15:19:40;7.00;;;5.53;;
9128;SDS011;4599;50.906;6.786;2023-03-01T15:23:47;7.77;;;5.80;;
9128;SDS011;4599;50.906;6.786;2023-03-01T15:27:51;10.93;;;6.30;;
9128;SDS011;4599;50.906;6.786;2023-03-01T15:31:56;11.10;;;6.33;;
9128;SDS011;4599;50.906;6.786;2023-03-01T15:36:00;8.63;;;6.37;;
9128;SDS011;4599;50.906;6.786;2023-03-01T15:40:16;10.33;;;6.60;;
9128;SDS011;4599;50.906;6.786;2023-03-01T15:44:25;7.37;;;5.70;;
9128;SDS011;4599;50.906;6.786;2023-03-01T15:48:38;10.73;;;6.20;;
9128;SDS011;4599;50.906;6.786;2023-03-01T15:52:41;7.70;;;5.93;;
9128;SDS011;4599;50.906;6.786;2023-03-01T15:56:43;13.60;;;7.10;;
9128;SDS011;4599;50.906;6.786;2023-03-01T16:00:45;12.27;;;6.10;;
9128;SDS011;4599;50.906;6.786;2023-03-01T16:05:00;9.17;;;5.80;;
9128;SDS011;4599;50.906;6.786;2023-03-01T16:09:03;9.03;;;6.27;;
9128;SDS011;4599;50.906;6.786;2023-03-01T16:13:05;9.17;;;6.00;;
9128;SDS011;4599;50.906;6.786;2023-03-01T16:17:06;8.60;;;5.70;;
9128;SDS011;4599;50.906;6.786;2023-03-01T16:21:10;11.07;;;5.10;;
9128;SDS011;4599;50.906;6.786;2023-03-01T16:25:16;7.73;;;6.03;;
9128;SDS011;4599;50.906;6.786;2023-03-01T16:29:19;8.63;;;6.23;;
9128;SDS011;4599;50.906;6.786;2023-03-01T16:33:21;9.83;;;5.67;;
9128;SDS011;4599;50.906;6.786;2023-03-01T16:37:33;7.30;;;5.50;;
9128;SDS011;4599;50.906;6.786;2023-03-01T16:41:37;8.40;;;5.90;;
9128;SDS011;4599;50.906;6.786;2023-03-01T16:45:38;10.63;;;5.77;;
9128;SDS011;4599;50.906;6.786;2023-03-01T16:49:40;10.93;;;4.97;;
9128;SDS011;4599;50.906;6.786;2023-03-01T16:53:42;11.27;;;5.17;;
9128;SDS011;4599;50.906;6.786;2023-03-01T16:57:46;15.63;;;5.70;;
9128;SDS011;4599;50.906;6.786;2023-03-01T17:01:47;8.10;;;5.27;;
9128;SDS011;4599;50.906;6.786;2023-03-01T17:05:49;9.60;;;4.73;;
9128;SDS011;4599;50.906;6.786;2023-03-01T17:09:50;6.50;;;4.87;;
9128;SDS011;4599;50.906;6.786;2023-03-01T17:13:53;7.17;;;4.97;;
9128;SDS011;4599;50.906;6.786;2023-03-01T17:17:54;9.40;;;5.00;;
9128;SDS011;4599;50.906;6.786;2023-03-01T17:21:56;6.57;;;4.40;;
9128;SDS011;4599;50.906;6.786;2023-03-01T17:25:57;7.17;;;4.47;;
9128;SDS011;4599;50.906;6.786;2023-03-01T17:30:00;5.83;;;4.40;;
9128;SDS011;4599;50.906;6.786;2023-03-01T17:34:02;8.00;;;4.67;;
9128;SDS011;4599;50.906;6.786;2023-03-01T17:38:04;6.80;;;4.47;;
9128;SDS011;4599;50.906;6.786;2023-03-01T17:42:05;6.50;;;4.27;;
9128;SDS011;4599;50.906;6.786;2023-03-01T17:46:08;9.33;;;5.03;;
9128;SDS011;4599;50.906;6.786;2023-03-01T17:50:10;6.97;;;5.00;;
9128;SDS011;4599;50.906;6.786;2023-03-01T17:54:12;7.53;;;4.93;;
9128;SDS011;4599;50.906;6.786;2023-03-01T17:58:13;8.13;;;5.37;;
9128;SDS011;4599;50.906;6.786;2023-03-01T18:02:16;8.70;;;5.37;;
9128;SDS011;4599;50.906;6.786;2023-03-01T18:06:21;6.67;;;5.10;;
9128;SDS011;4599;50.906;6.786;2023-03-01T18:10:23;7.13;;;4.70;;
9128;SDS011;4599;50.906;6.786;2023-03-01T18:14:25;6.90;;;5.10;;
9128;SDS011;4599;50.906;6.786;2023-03-01T18:18:28;11.60;;;5.50;;
9128;SDS011;4599;50.906;6.786;2023-03-01T18:22:29;10.37;;;5.90;;
9128;SDS011;4599;50.906;6.786;2023-03-01T18:26:31;9.23;;;5.93;;
9128;SDS011;4599;50.906;6.786;2023-03-01T18:30:34;13.17;;;6.30;;
9128;SDS011;4599;50.906;6.786;2023-03-01T18:34:37;9.93;;;6.50;;
9128;SDS011;4599;50.906;6.786;2023-03-01T18:38:38;10.43;;;6.93;;
9128;SDS011;4599;50.906;6.786;2023-03-01T18:42:39;13.13;;;6.17;;
9128;SDS011;4599;50.906;6.786;2023-03-01T18:46:42;13.40;;;6.93;;
9128;SDS011;4599;50.906;6.786;2023-03-01T18:50:45;10.00;;;5.77;;
9128;SDS011;4599;50.906;6.786;2023-03-01T18:54:46;10.67;;;5.70;;
9128;SDS011;4599;50.906;6.786;2023-03-01T18:58:48;9.03;;;5.80;;
9128;SDS011;4599;50.906;6.786;2023-03-01T19:02:50;8.20;;;5.93;;
9128;SDS011;4599;50.906;6.786;2023-03-01T19:06:55;9.37;;;6.33;;
9128;SDS011;4599;50.906;6.786;2023-03-01T19:10:57;8.03;;;5.33;;
9128;SDS011;4599;50.906;6.786;2023-03-01T19:15:00;9.90;;;5.60;;
9128;SDS011;4599;50.906;6.786;2023-03-01T19:19:02;10.23;;;5.93;;
9128;SDS011;4599;50.906;6.786;2023-03-01T19:23:06;9.17;;;5.77;;
9128;SDS011;4599;50.906;6.786;2023-03-01T19:27:08;10.00;;;5.47;;
9128;SDS011;4599;50.906;6.786;2023-03-01T19:31:10;8.67;;;5.57;;
9128;SDS011;4599;50.906;6.786;2023-03-01T19:35:13;9.43;;;5.40;;
9128;SDS011;4599;50.906;6.786;2023-03-01T19:39:16;13.30;;;6.03;;
9128;SDS011;4599;50.906;6.786;2023-03-01T19:43:18;9.57;;;6.00;;
9128;SDS011;4599;50.906;6.786;2023-03-01T19:47:20;9.67;;;5.93;;
9128;SDS011;4599;50.906;6.786;2023-03-01T19:51:21;7.97;;;5.40;;
9128;SDS011;4599;50.906;6.786;2023-03-01T19:55:24;9.50;;;6.30;;
9128;SDS011;4599;50.906;6.786;2023-03-01T19:59:25;11.47;;;5.97;;
9128;SDS011;4599;50.906;6.786;2023-03-01T20:03:28;7.03;;;5.17;;
9128;SDS011;4599;50.906;6.786;2023-03-01T20:07:31;13.07;;;5.60;;
9128;SDS011;4599;50.906;6.786;2023-03-01T20:11:34;9.90;;;5.73;;
9128;SDS011;4599;50.906;6.786;2023-03-01T20:15:36;7.03;;;5.60;;
9128;SDS011;4599;50.906;6.786;2023-03-01T20:19:41;9.40;;;5.10;;
9128;SDS011;4599;50.906;6.786;2023-03-01T20:23:42;11.00;;;5.10;;
9128;SDS011;4599;50.906;6.786;2023-03-01T20:27:45;8.20;;;5.73;;
9128;SDS011;4599;50.906;6.786;2023-03-01T20:31:46;10.43;;;6.10;;
9128;SDS011;4599;50.906;6.786;2023-03-01T20:35:48;9.43;;;5.77;;
9128;SDS011;4599;50.906;6.786;2023-03-01T20:39:50;7.57;;;5.30;;
9128;SDS011;4599;50.906;6.786;2023-03-01T20:43:53;10.27;;;5.53;;
9128;SDS011;4599;50.906;6.786;2023-03-01T20:47:54;10.23;;;5.63;;
9128;SDS011;4599;50.906;6.786;2023-03-01T20:51:56;9.60;;;5.27;;
9128;SDS011;4599;50.906;6.786;2023-03-01T20:56:00;9.30;;;5.37;;
9128;SDS011;4599;50.906;6.786;2023-03-01T21:00:04;13.37;;;5.70;;
9128;SDS011;4599;50.906;6.786;2023-03-01T21:04:06;11.37;;;5.73;;
9128;SDS011;4599;50.906;6.786;2023-03-01T21:08:08;11.20;;;6.37;;
9128;SDS011;4599;50.906;6.786;2023-03-01T21:12:09;8.63;;;5.63;;
9128;SDS011;4599;50.906;6.786;2023-03-01T21:16:13;7.40;;;5.43;;
9128;SDS011;4599;50.906;6.786;2023-03-01T21:20:16;8.90;;;5.50;;
9128;SDS011;4599;50.906;6.786;2023-03-01T21:24:19;6.90;;;4.80;;
9128;SDS011;4599;50.906;6.786;2023-03-01T21:28:21;8.57;;;5.93;;
9128;SDS011;4599;50.906;6.786;2023-03-01T21:32:23;8.97;;;5.90;;
9128;SDS011;4599;50.906;6.786;2023-03-01T21:36:25;7.17;;;5.43;;
9128;SDS011;4599;50.906;6.786;2023-03-01T21:40:28;11.50;;;5.27;;
9128;SDS011;4599;50.906;6.786;2023-03-01T21:44:30;9.13;;;5.50;;
9128;SDS011;4599;50.906;6.786;2023-03-01T21:48:33;8.70;;;5.30;;
9128;SDS011;4599;50.906;6.786;2023-03-01T21:52:35;9.40;;;5.70;;
9128;SDS011;4599;50.906;6.786;2023-03-01T21:56:36;8.83;;;5.73;;
9128;SDS011;4599;50.906;6.786;2023-03-01T22:00:38;9.83;;;5.60;;
9128;SDS011;4599;50.906;6.786;2023-03-01T22:04:40;7.33;;;5.50;;
9128;SDS011;4599;50.906;6.786;2023-03-01T22:08:43;9.13;;;5.47;;
9128;SDS011;4599;50.906;6.786;2023-03-01T22:12:45;9.60;;;5.50;;
9128;SDS011;4599;50.906;6.786;2023-03-01T22:16:47;9.50;;;5.80;;
9128;SDS011;4599;50.906;6.786;2023-03-01T22:20:50;7.67;;;5.57;;
9128;SDS011;4599;50.906;6.786;2023-03-01T22:24:52;8.53;;;5.67;;
9128;SDS011;4599;50.906;6.786;2023-03-01T22:28:54;8.07;;;5.53;;
9128;SDS011;4599;50.906;6.786;2023-03-01T22:32:57;8.80;;;5.93;;
9128;SDS011;4599;50.906;6.786;2023-03-01T22:37:00;12.27;;;6.40;;
9128;SDS011;4599;50.906;6.786;2023-03-01T22:41:02;8.10;;;5.37;;
9128;SDS011;4599;50.906;6.786;2023-03-01T22:45:04;7.13;;;5.57;;
9128;SDS011;4599;50.906;6.786;2023-03-01T22:49:06;8.93;;;5.60;;
9128;SDS011;4599;50.906;6.786;2023-03-01T22:53:10;10.73;;;6.00;;
9128;SDS011;4599;50.906;6.786;2023-03-01T22:57:11;9.27;;;5.43;;
9128;SDS011;4599;50.906;6.786;2023-03-01T23:01:13;10.30;;;5.90;;
9128;SDS011;4599;50.906;6.786;2023-03-01T23:05:17;7.27;;;5.53;;
9128;SDS011;4599;50.906;6.786;2023-03-01T23:09:20;10.50;;;5.37;;
9128;SDS011;4599;50.906;6.786;2023-03-01T23:13:23;8.90;;;5.47;;
9128;SDS011;4599;50.906;6.786;2023-03-01T23:17:24;10.10;;;5.53;;
9128;SDS011;4599;50.906;6.786;2023-03-01T23:21:26;11.80;;;6.10;;
9128;SDS011;4599;50.906;6.786;2023-03-01T23:25:29;9.43;;;5.63;;
9128;SDS011;4599;50.906;6.786;2023-03-01T23:29:30;10.63;;;5.43;;
9128;SDS011;4599;50.906;6.786;2023-03-01T23:33:32;7.63;;;5.63;;
9128;SDS011;4599;50.906;6.786;2023-03-01T23:37:33;8.87;;;5.83;;
9128;SDS011;4599;50.906;6.786;2023-03-01T23:41:36;9.03;;;5.80;;
9128;SDS011;4599;50.906;6.786;2023-03-01T23:45:39;9.60;;;6.03;;
9128;SDS011;4599;50.906;6.786;2023-03-01T23:49:41;7.90;;;5.30;;
9128;SDS011;4599;50.906;6.786;2023-03-01T23:53:42;9.13;;;6.33;;
9128;SDS011;4599;50.906;6.786;2023-03-01T23:57:47;11.17;;;6.47;;
